sensor_id;sensor_type;location;lat;lon;timestamp;P1;durP1;ratioP1;P2;durP2;ratioP2
35632;SDS011;21754;48.216;-1.628;2023-06-14T00:01:50;25.48;;;16.35;;
35632;SDS011;21754;48.216;-1.628;2023-06-14T00:04:17;23.88;;;16.02;;
35632;SDS011;21754;48.216;-1.628;2023-06-14T00:06:43;24.02;;;15.07;;
35632;SDS011;21754;48.216;-1.628;2023-06-14T00:09:15;26.70;;;18.67;;
35632;SDS011;21754;48.216;-1.628;2023-06-14T00:11:44;26.08;;;17.05;;
35632;SDS011;21754;48.216;-1.628;2023-06-14T00:14:10;33.90;;;18.05;;
35632;SDS011;21754;48.216;-1.628;2023-06-14T00:16:36;28.95;;;18.58;;
35632;SDS011;21754;48.216;-1.628;2023-06-14T00:19:03;24.30;;;17.17;;
35632;SDS011;21754;48.216;-1.628;2023-06-14T00:21:30;27.95;;;17.23;;
35632;SDS011;21754;48.216;-1.628;2023-06-14T00:23:57;27.13;;;17.65;;
35632;SDS011;21754;48.216;-1.628;2023-06-14T00:26:23;32.83;;;21.17;;
35632;SDS011;21754;48.216;-1.628;2023-06-14T00:28:51;30.02;;;20.33;;
35632;SDS011;21754;48.216;-1.628;2023-06-14T00:31:17;30.60;;;18.45;;
35632;SDS011;21754;48.216;-1.628;2023-06-14T00:33:43;29.75;;;18.25;;
35632;SDS011;21754;48.216;-1.628;2023-06-14T00:36:10;27.95;;;19.13;;
35632;SDS011;21754;48.216;-1.628;2023-06-14T00:38:36;29.55;;;19.15;;
35632;SDS011;21754;48.216;-1.628;2023-06-14T00:41:02;34.30;;;19.52;;
35632;SDS011;21754;48.216;-1.628;2023-06-14T00:43:28;29.15;;;18.85;;
35632;SDS011;21754;48.216;-1.628;2023-06-14T00:45:54;30.02;;;19.92;;
35632;SDS011;21754;48.216;-1.628;2023-06-14T00:48:20;33.72;;;20.23;;
35632;SDS011;21754;48.216;-1.628;2023-06-14T00:50:46;33.47;;;21.63;;
35632;SDS011;21754;48.216;-1.628;2023-06-14T00:53:13;32.33;;;18.85;;
35632;SDS011;21754;48.216;-1.628;2023-06-14T00:55:40;33.17;;;18.80;;
35632;SDS011;21754;48.216;-1.628;2023-06-14T00:58:06;36.03;;;21.67;;
35632;SDS011;21754;48.216;-1.628;2023-06-14T01:00:32;30.80;;;20.73;;
35632;SDS011;21754;48.216;-1.628;2023-06-14T01:02:58;35.88;;;21.98;;
35632;SDS011;21754;48.216;-1.628;2023-06-14T01:05:26;31.98;;;21.02;;
35632;SDS011;21754;48.216;-1.628;2023-06-14T01:10:25;33.03;;;20.52;;
35632;SDS011;21754;48.216;-1.628;2023-06-14T01:12:58;31.38;;;21.85;;
35632;SDS011;21754;48.216;-1.628;2023-06-14T01:15:24;30.85;;;21.42;;
35632;SDS011;21754;48.216;-1.628;2023-06-14T01:17:50;29.92;;;21.73;;
35632;SDS011;21754;48.216;-1.628;2023-06-14T01:20:19;36.70;;;23.95;;
35632;SDS011;21754;48.216;-1.628;2023-06-14T01:22:52;36.20;;;23.38;;
35632;SDS011;21754;48.216;-1.628;2023-06-14T01:25:19;35.63;;;24.42;;
35632;SDS011;21754;48.216;-1.628;2023-06-14T01:27:48;43.25;;;25.13;;
35632;SDS011;21754;48.216;-1.628;2023-06-14T01:30:15;41.33;;;24.63;;
35632;SDS011;21754;48.216;-1.628;2023-06-14T01:32:42;36.47;;;24.83;;
35632;SDS011;21754;48.216;-1.628;2023-06-14T01:35:09;41.63;;;25.55;;
35632;SDS011;21754;48.216;-1.628;2023-06-14T01:37:35;44.47;;;24.15;;
35632;SDS011;21754;48.216;-1.628;2023-06-14T01:40:05;46.45;;;25.60;;
35632;SDS011;21754;48.216;-1.628;2023-06-14T01:42:33;37.22;;;23.23;;
35632;SDS011;21754;48.216;-1.628;2023-06-14T01:45:01;46.67;;;25.75;;
35632;SDS011;21754;48.216;-1.628;2023-06-14T01:47:28;40.50;;;23.58;;
35632;SDS011;21754;48.216;-1.628;2023-06-14T01:49:53;44.75;;;23.98;;
35632;SDS011;21754;48.216;-1.628;2023-06-14T01:52:20;38.80;;;25.00;;
35632;SDS011;21754;48.216;-1.628;2023-06-14T01:54:47;41.50;;;23.67;;
35632;SDS011;21754;48.216;-1.628;2023-06-14T01:57:14;40.72;;;25.08;;
35632;SDS011;21754;48.216;-1.628;2023-06-14T01:59:41;40.60;;;26.23;;
35632;SDS011;21754;48.216;-1.628;2023-06-14T02:02:07;42.47;;;26.42;;
35632;SDS011;21754;48.216;-1.628;2023-06-14T02:04:33;41.35;;;25.35;;
35632;SDS011;21754;48.216;-1.628;2023-06-14T02:06:59;50.15;;;25.45;;
35632;SDS011;21754;48.216;-1.628;2023-06-14T02:09:25;50.75;;;29.13;;
35632;SDS011;21754;48.216;-1.628;2023-06-14T02:11:51;45.88;;;27.75;;
35632;SDS011;21754;48.216;-1.628;2023-06-14T02:14:17;43.35;;;27.75;;
35632;SDS011;21754;48.216;-1.628;2023-06-14T02:16:43;50.00;;;27.73;;
35632;SDS011;21754;48.216;-1.628;2023-06-14T02:19:16;39.90;;;25.48;;
35632;SDS011;21754;48.216;-1.628;2023-06-14T02:21:43;43.78;;;26.77;;
35632;SDS011;21754;48.216;-1.628;2023-06-14T02:24:09;43.22;;;26.55;;
35632;SDS011;21754;48.216;-1.628;2023-06-14T02:26:35;44.55;;;27.77;;
35632;SDS011;21754;48.216;-1.628;2023-06-14T02:29:06;46.90;;;27.77;;
35632;SDS011;21754;48.216;-1.628;2023-06-14T02:31:35;52.50;;;28.60;;
35632;SDS011;21754;48.216;-1.628;2023-06-14T02:34:01;47.95;;;28.58;;
35632;SDS011;21754;48.216;-1.628;2023-06-14T02:36:27;55.65;;;28.23;;
35632;SDS011;21754;48.216;-1.628;2023-06-14T02:38:56;53.70;;;29.73;;
35632;SDS011;21754;48.216;-1.628;2023-06-14T02:41:25;55.90;;;28.27;;
35632;SDS011;21754;48.216;-1.628;2023-06-14T02:43:52;50.20;;;28.80;;
35632;SDS011;21754;48.216;-1.628;2023-06-14T02:46:18;48.53;;;28.55;;
35632;SDS011;21754;48.216;-1.628;2023-06-14T02:48:44;47.55;;;27.75;;
35632;SDS011;21754;48.216;-1.628;2023-06-14T02:51:10;53.22;;;28.80;;
35632;SDS011;21754;48.216;-1.628;2023-06-14T02:53:37;55.38;;;29.77;;
35632;SDS011;21754;48.216;-1.628;2023-06-14T02:56:03;58.95;;;29.17;;
35632;SDS011;21754;48.216;-1.628;2023-06-14T02:58:30;62.97;;;31.35;;
35632;SDS011;21754;48.216;-1.628;2023-06-14T03:00:56;52.40;;;30.55;;
35632;SDS011;21754;48.216;-1.628;2023-06-14T03:03:22;58.60;;;31.42;;
35632;SDS011;21754;48.216;-1.628;2023-06-14T03:05:49;52.83;;;30.03;;
35632;SDS011;21754;48.216;-1.628;2023-06-14T03:08:16;51.22;;;29.05;;
35632;SDS011;21754;48.216;-1.628;2023-06-14T03:10:45;45.50;;;27.13;;
35632;SDS011;21754;48.216;-1.628;2023-06-14T03:13:11;59.05;;;31.52;;
35632;SDS011;21754;48.216;-1.628;2023-06-14T03:15:37;52.63;;;32.60;;
35632;SDS011;21754;48.216;-1.628;2023-06-14T03:18:04;47.30;;;30.05;;
35632;SDS011;21754;48.216;-1.628;2023-06-14T03:20:30;51.17;;;32.17;;
35632;SDS011;21754;48.216;-1.628;2023-06-14T03:23:00;48.92;;;29.40;;
35632;SDS011;21754;48.216;-1.628;2023-06-14T03:25:27;51.90;;;30.00;;
35632;SDS011;21754;48.216;-1.628;2023-06-14T03:27:54;54.63;;;29.58;;
35632;SDS011;21754;48.216;-1.628;2023-06-14T03:30:21;54.78;;;31.08;;
35632;SDS011;21754;48.216;-1.628;2023-06-14T03:32:47;50.63;;;30.65;;
35632;SDS011;21754;48.216;-1.628;2023-06-14T03:35:13;54.15;;;31.15;;
35632;SDS011;21754;48.216;-1.628;2023-06-14T03:37:46;53.90;;;29.48;;
35632;SDS011;21754;48.216;-1.628;2023-06-14T03:40:12;62.85;;;31.80;;
35632;SDS011;21754;48.216;-1.628;2023-06-14T03:42:39;50.50;;;29.15;;
35632;SDS011;21754;48.216;-1.628;2023-06-14T03:45:05;54.33;;;31.55;;
35632;SDS011;21754;48.216;-1.628;2023-06-14T03:47:32;55.08;;;33.28;;
35632;SDS011;21754;48.216;-1.628;2023-06-14T03:49:58;55.42;;;31.77;;
35632;SDS011;21754;48.216;-1.628;2023-06-14T03:52:25;60.45;;;31.90;;
35632;SDS011;21754;48.216;-1.628;2023-06-14T03:54:51;51.38;;;27.90;;
35632;SDS011;21754;48.216;-1.628;2023-06-14T03:57:17;56.38;;;31.15;;
35632;SDS011;21754;48.216;-1.628;2023-06-14T03:59:43;52.05;;;31.48;;
35632;SDS011;21754;48.216;-1.628;2023-06-14T04:02:09;54.92;;;32.20;;
35632;SDS011;21754;48.216;-1.628;2023-06-14T04:04:35;45.50;;;27.73;;
35632;SDS011;21754;48.216;-1.628;2023-06-14T04:07:02;53.15;;;29.55;;
35632;SDS011;21754;48.216;-1.628;2023-06-14T04:09:31;64.22;;;30.38;;
35632;SDS011;21754;48.216;-1.628;2023-06-14T04:11:58;50.50;;;28.65;;
35632;SDS011;21754;48.216;-1.628;2023-06-14T04:14:24;49.78;;;27.95;;
35632;SDS011;21754;48.216;-1.628;2023-06-14T04:16:50;62.80;;;29.17;;
35632;SDS011;21754;48.216;-1.628;2023-06-14T04:19:16;48.22;;;29.27;;
35632;SDS011;21754;48.216;-1.628;2023-06-14T04:21:42;52.63;;;29.80;;
35632;SDS011;21754;48.216;-1.628;2023-06-14T04:24:08;45.78;;;27.20;;
35632;SDS011;21754;48.216;-1.628;2023-06-14T04:26:44;67.43;;;28.27;;
35632;SDS011;21754;48.216;-1.628;2023-06-14T04:29:13;42.28;;;27.48;;
35632;SDS011;21754;48.216;-1.628;2023-06-14T04:31:42;50.30;;;27.08;;
35632;SDS011;21754;48.216;-1.628;2023-06-14T04:34:09;47.75;;;28.08;;
35632;SDS011;21754;48.216;-1.628;2023-06-14T04:36:41;54.85;;;29.25;;
35632;SDS011;21754;48.216;-1.628;2023-06-14T04:39:17;56.70;;;28.67;;
35632;SDS011;21754;48.216;-1.628;2023-06-14T04:41:43;53.80;;;29.35;;
35632;SDS011;21754;48.216;-1.628;2023-06-14T04:44:09;51.72;;;28.63;;
35632;SDS011;21754;48.216;-1.628;2023-06-14T04:46:36;45.55;;;27.40;;
35632;SDS011;21754;48.216;-1.628;2023-06-14T04:49:14;43.97;;;26.00;;
35632;SDS011;21754;48.216;-1.628;2023-06-14T04:51:44;47.53;;;27.15;;
35632;SDS011;21754;48.216;-1.628;2023-06-14T04:54:12;53.72;;;28.95;;
35632;SDS011;21754;48.216;-1.628;2023-06-14T04:56:41;54.30;;;30.27;;
35632;SDS011;21754;48.216;-1.628;2023-06-14T04:59:07;52.17;;;28.30;;
35632;SDS011;21754;48.216;-1.628;2023-06-14T05:01:34;51.20;;;27.88;;
35632;SDS011;21754;48.216;-1.628;2023-06-14T05:04:00;47.22;;;28.27;;
35632;SDS011;21754;48.216;-1.628;2023-06-14T05:06:26;51.33;;;28.15;;
35632;SDS011;21754;48.216;-1.628;2023-06-14T05:08:55;49.20;;;27.17;;
35632;SDS011;21754;48.216;-1.628;2023-06-14T05:11:21;55.10;;;27.58;;
35632;SDS011;21754;48.216;-1.628;2023-06-14T05:13:52;49.75;;;26.58;;
35632;SDS011;21754;48.216;-1.628;2023-06-14T05:16:18;52.17;;;26.33;;
35632;SDS011;21754;48.216;-1.628;2023-06-14T05:18:45;48.97;;;27.40;;
35632;SDS011;21754;48.216;-1.628;2023-06-14T05:21:12;55.42;;;27.65;;
35632;SDS011;21754;48.216;-1.628;2023-06-14T05:23:42;48.33;;;26.02;;
35632;SDS011;21754;48.216;-1.628;2023-06-14T05:26:09;50.30;;;24.23;;
35632;SDS011;21754;48.216;-1.628;2023-06-14T05:28:35;42.50;;;22.88;;
35632;SDS011;21754;48.216;-1.628;2023-06-14T05:31:01;44.47;;;24.95;;
35632;SDS011;21754;48.216;-1.628;2023-06-14T05:33:27;47.28;;;26.63;;
35632;SDS011;21754;48.216;-1.628;2023-06-14T05:35:54;51.15;;;26.30;;
35632;SDS011;21754;48.216;-1.628;2023-06-14T05:38:20;43.78;;;23.85;;
35632;SDS011;21754;48.216;-1.628;2023-06-14T05:40:46;41.25;;;22.52;;
35632;SDS011;21754;48.216;-1.628;2023-06-14T05:43:12;41.00;;;23.63;;
35632;SDS011;21754;48.216;-1.628;2023-06-14T05:45:39;46.08;;;22.67;;
35632;SDS011;21754;48.216;-1.628;2023-06-14T05:48:05;44.85;;;23.25;;
35632;SDS011;21754;48.216;-1.628;2023-06-14T05:50:31;48.33;;;24.35;;
35632;SDS011;21754;48.216;-1.628;2023-06-14T05:52:57;41.50;;;23.85;;
35632;SDS011;21754;48.216;-1.628;2023-06-14T05:55:23;47.85;;;23.70;;
35632;SDS011;21754;48.216;-1.628;2023-06-14T05:57:50;41.22;;;23.23;;
35632;SDS011;21754;48.216;-1.628;2023-06-14T06:00:17;39.65;;;23.38;;
35632;SDS011;21754;48.216;-1.628;2023-06-14T06:05:14;39.38;;;22.85;;
35632;SDS011;21754;48.216;-1.628;2023-06-14T06:07:42;36.75;;;22.50;;
35632;SDS011;21754;48.216;-1.628;2023-06-14T06:10:12;41.65;;;22.05;;
35632;SDS011;21754;48.216;-1.628;2023-06-14T06:12:38;39.75;;;20.77;;
35632;SDS011;21754;48.216;-1.628;2023-06-14T06:15:04;37.72;;;22.77;;
35632;SDS011;21754;48.216;-1.628;2023-06-14T06:17:30;38.33;;;23.08;;
35632;SDS011;21754;48.216;-1.628;2023-06-14T06:19:56;33.22;;;18.55;;
35632;SDS011;21754;48.216;-1.628;2023-06-14T06:22:22;36.78;;;20.13;;
35632;SDS011;21754;48.216;-1.628;2023-06-14T06:24:48;35.65;;;21.58;;
35632;SDS011;21754;48.216;-1.628;2023-06-14T06:27:14;44.15;;;22.33;;
35632;SDS011;21754;48.216;-1.628;2023-06-14T06:29:41;34.70;;;19.42;;
35632;SDS011;21754;48.216;-1.628;2023-06-14T06:32:08;40.15;;;20.98;;
35632;SDS011;21754;48.216;-1.628;2023-06-14T06:34:35;33.63;;;20.00;;
35632;SDS011;21754;48.216;-1.628;2023-06-14T06:37:02;32.90;;;19.80;;
35632;SDS011;21754;48.216;-1.628;2023-06-14T06:39:28;30.80;;;17.80;;
35632;SDS011;21754;48.216;-1.628;2023-06-14T06:41:54;30.02;;;18.75;;
35632;SDS011;21754;48.216;-1.628;2023-06-14T06:44:20;31.65;;;18.05;;
35632;SDS011;21754;48.216;-1.628;2023-06-14T06:46:46;29.65;;;18.52;;
35632;SDS011;21754;48.216;-1.628;2023-06-14T06:49:12;30.10;;;17.67;;
35632;SDS011;21754;48.216;-1.628;2023-06-14T06:51:41;26.25;;;17.63;;
35632;SDS011;21754;48.216;-1.628;2023-06-14T06:54:08;26.00;;;17.73;;
35632;SDS011;21754;48.216;-1.628;2023-06-14T06:56:34;21.55;;;14.73;;
35632;SDS011;21754;48.216;-1.628;2023-06-14T06:59:00;27.55;;;17.60;;
35632;SDS011;21754;48.216;-1.628;2023-06-14T07:01:26;29.50;;;15.85;;
35632;SDS011;21754;48.216;-1.628;2023-06-14T07:03:54;30.25;;;17.23;;
35632;SDS011;21754;48.216;-1.628;2023-06-14T07:06:20;25.58;;;15.52;;
35632;SDS011;21754;48.216;-1.628;2023-06-14T07:08:46;28.05;;;16.42;;
35632;SDS011;21754;48.216;-1.628;2023-06-14T07:11:15;31.42;;;16.17;;
35632;SDS011;21754;48.216;-1.628;2023-06-14T07:13:41;21.85;;;14.98;;
35632;SDS011;21754;48.216;-1.628;2023-06-14T07:16:07;27.08;;;15.57;;
35632;SDS011;21754;48.216;-1.628;2023-06-14T07:18:33;24.98;;;14.73;;
35632;SDS011;21754;48.216;-1.628;2023-06-14T07:20:59;21.15;;;13.98;;
35632;SDS011;21754;48.216;-1.628;2023-06-14T07:23:25;26.13;;;12.80;;
35632;SDS011;21754;48.216;-1.628;2023-06-14T07:25:51;29.00;;;14.68;;
35632;SDS011;21754;48.216;-1.628;2023-06-14T07:28:17;23.00;;;15.82;;
35632;SDS011;21754;48.216;-1.628;2023-06-14T07:30:44;23.48;;;14.23;;
35632;SDS011;21754;48.216;-1.628;2023-06-14T07:33:10;24.90;;;14.52;;
35632;SDS011;21754;48.216;-1.628;2023-06-14T07:35:37;20.45;;;13.98;;
35632;SDS011;21754;48.216;-1.628;2023-06-14T07:38:03;24.20;;;13.75;;
35632;SDS011;21754;48.216;-1.628;2023-06-14T07:40:29;27.85;;;13.70;;
35632;SDS011;21754;48.216;-1.628;2023-06-14T07:42:55;17.35;;;11.65;;
35632;SDS011;21754;48.216;-1.628;2023-06-14T07:45:21;24.85;;;12.38;;
35632;SDS011;21754;48.216;-1.628;2023-06-14T07:47:47;18.10;;;12.35;;
35632;SDS011;21754;48.216;-1.628;2023-06-14T07:50:13;20.60;;;12.38;;
35632;SDS011;21754;48.216;-1.628;2023-06-14T07:52:39;23.75;;;12.43;;
35632;SDS011;21754;48.216;-1.628;2023-06-14T07:55:05;16.40;;;11.38;;
35632;SDS011;21754;48.216;-1.628;2023-06-14T07:57:31;21.67;;;11.70;;
35632;SDS011;21754;48.216;-1.628;2023-06-14T07:59:57;24.17;;;13.27;;
35632;SDS011;21754;48.216;-1.628;2023-06-14T08:02:23;22.90;;;11.63;;
35632;SDS011;21754;48.216;-1.628;2023-06-14T08:04:49;16.95;;;10.85;;
35632;SDS011;21754;48.216;-1.628;2023-06-14T08:07:15;20.20;;;11.07;;
35632;SDS011;21754;48.216;-1.628;2023-06-14T08:09:41;19.50;;;12.10;;
35632;SDS011;21754;48.216;-1.628;2023-06-14T08:12:07;19.42;;;12.95;;
35632;SDS011;21754;48.216;-1.628;2023-06-14T08:14:36;20.27;;;10.48;;
35632;SDS011;21754;48.216;-1.628;2023-06-14T08:17:02;24.27;;;13.35;;
35632;SDS011;21754;48.216;-1.628;2023-06-14T08:19:29;19.13;;;11.25;;
35632;SDS011;21754;48.216;-1.628;2023-06-14T08:21:55;21.20;;;10.63;;
35632;SDS011;21754;48.216;-1.628;2023-06-14T08:24:21;20.75;;;10.77;;
35632;SDS011;21754;48.216;-1.628;2023-06-14T08:26:52;20.05;;;11.65;;
35632;SDS011;21754;48.216;-1.628;2023-06-14T08:29:18;21.70;;;9.73;;
35632;SDS011;21754;48.216;-1.628;2023-06-14T08:31:44;18.02;;;10.18;;
35632;SDS011;21754;48.216;-1.628;2023-06-14T08:34:11;18.10;;;10.18;;
35632;SDS011;21754;48.216;-1.628;2023-06-14T08:36:37;12.90;;;9.27;;
35632;SDS011;21754;48.216;-1.628;2023-06-14T08:39:03;18.67;;;11.25;;
35632;SDS011;21754;48.216;-1.628;2023-06-14T08:41:29;18.17;;;9.05;;
35632;SDS011;21754;48.216;-1.628;2023-06-14T08:43:56;16.75;;;10.82;;
35632;SDS011;21754;48.216;-1.628;2023-06-14T08:46:22;12.93;;;10.23;;
35632;SDS011;21754;48.216;-1.628;2023-06-14T08:48:50;15.95;;;8.82;;
35632;SDS011;21754;48.216;-1.628;2023-06-14T08:51:20;16.73;;;9.03;;
35632;SDS011;21754;48.216;-1.628;2023-06-14T08:53:52;19.35;;;10.20;;
35632;SDS011;21754;48.216;-1.628;2023-06-14T08:56:18;16.25;;;8.82;;
35632;SDS011;21754;48.216;-1.628;2023-06-14T08:58:45;14.00;;;8.38;;
35632;SDS011;21754;48.216;-1.628;2023-06-14T09:01:13;20.02;;;10.35;;
35632;SDS011;21754;48.216;-1.628;2023-06-14T09:03:41;13.80;;;7.82;;
35632;SDS011;21754;48.216;-1.628;2023-06-14T09:06:08;17.13;;;8.30;;
35632;SDS011;21754;48.216;-1.628;2023-06-14T09:08:39;11.07;;;8.23;;
35632;SDS011;21754;48.216;-1.628;2023-06-14T09:11:05;20.98;;;8.23;;
35632;SDS011;21754;48.216;-1.628;2023-06-14T09:13:31;17.83;;;7.95;;
35632;SDS011;21754;48.216;-1.628;2023-06-14T09:15:57;13.63;;;8.55;;
35632;SDS011;21754;48.216;-1.628;2023-06-14T09:18:32;14.52;;;8.85;;
35632;SDS011;21754;48.216;-1.628;2023-06-14T09:20:59;18.95;;;10.65;;
35632;SDS011;21754;48.216;-1.628;2023-06-14T09:23:25;11.57;;;8.43;;
35632;SDS011;21754;48.216;-1.628;2023-06-14T09:25:51;20.90;;;9.52;;
35632;SDS011;21754;48.216;-1.628;2023-06-14T09:28:17;10.43;;;6.65;;
35632;SDS011;21754;48.216;-1.628;2023-06-14T09:30:45;13.25;;;8.48;;
35632;SDS011;21754;48.216;-1.628;2023-06-14T09:33:16;13.23;;;7.18;;
35632;SDS011;21754;48.216;-1.628;2023-06-14T09:35:44;12.82;;;8.50;;
35632;SDS011;21754;48.216;-1.628;2023-06-14T09:38:10;10.95;;;7.45;;
35632;SDS011;21754;48.216;-1.628;2023-06-14T09:40:36;26.67;;;7.60;;
35632;SDS011;21754;48.216;-1.628;2023-06-14T09:43:04;18.35;;;6.78;;
35632;SDS011;21754;48.216;-1.628;2023-06-14T09:45:31;13.80;;;6.30;;
35632;SDS011;21754;48.216;-1.628;2023-06-14T09:47:57;12.18;;;8.05;;
35632;SDS011;21754;48.216;-1.628;2023-06-14T09:50:32;21.02;;;6.90;;
35632;SDS011;21754;48.216;-1.628;2023-06-14T09:53:01;7.38;;;5.95;;
35632;SDS011;21754;48.216;-1.628;2023-06-14T09:55:28;12.27;;;7.03;;
35632;SDS011;21754;48.216;-1.628;2023-06-14T09:57:56;7.95;;;5.88;;
35632;SDS011;21754;48.216;-1.628;2023-06-14T10:00:23;11.20;;;5.27;;
35632;SDS011;21754;48.216;-1.628;2023-06-14T10:02:55;13.25;;;6.40;;
35632;SDS011;21754;48.216;-1.628;2023-06-14T10:05:25;13.52;;;7.18;;
35632;SDS011;21754;48.216;-1.628;2023-06-14T10:07:55;8.65;;;5.28;;
35632;SDS011;21754;48.216;-1.628;2023-06-14T10:10:23;11.95;;;6.88;;
35632;SDS011;21754;48.216;-1.628;2023-06-14T10:12:49;17.60;;;10.40;;
35632;SDS011;21754;48.216;-1.628;2023-06-14T10:15:20;11.40;;;5.82;;
35632;SDS011;21754;48.216;-1.628;2023-06-14T10:17:49;17.08;;;7.55;;
35632;SDS011;21754;48.216;-1.628;2023-06-14T10:21:18;9.40;;;6.45;;
35632;SDS011;21754;48.216;-1.628;2023-06-14T10:23:13;9.80;;;5.70;;
35632;SDS011;21754;48.216;-1.628;2023-06-14T10:25:42;7.45;;;6.05;;
35632;SDS011;21754;48.216;-1.628;2023-06-14T10:28:15;10.73;;;5.00;;
35632;SDS011;21754;48.216;-1.628;2023-06-14T10:33:31;10.35;;;6.85;;
35632;SDS011;21754;48.216;-1.628;2023-06-14T10:36:08;14.02;;;7.38;;
35632;SDS011;21754;48.216;-1.628;2023-06-14T10:38:35;7.95;;;5.13;;
35632;SDS011;21754;48.216;-1.628;2023-06-14T10:41:02;10.13;;;5.72;;
35632;SDS011;21754;48.216;-1.628;2023-06-14T10:43:29;17.63;;;6.68;;
35632;SDS011;21754;48.216;-1.628;2023-06-14T10:48:43;9.95;;;5.60;;
35632;SDS011;21754;48.216;-1.628;2023-06-14T10:51:16;13.63;;;5.57;;
35632;SDS011;21754;48.216;-1.628;2023-06-14T10:53:45;11.05;;;4.95;;
35632;SDS011;21754;48.216;-1.628;2023-06-14T10:56:27;12.98;;;6.35;;
35632;SDS011;21754;48.216;-1.628;2023-06-14T10:58:54;15.55;;;6.03;;
35632;SDS011;21754;48.216;-1.628;2023-06-14T11:01:35;5.90;;;4.95;;
35632;SDS011;21754;48.216;-1.628;2023-06-14T11:04:08;9.98;;;5.03;;
35632;SDS011;21754;48.216;-1.628;2023-06-14T11:06:59;12.25;;;5.30;;
35632;SDS011;21754;48.216;-1.628;2023-06-14T11:09:44;8.25;;;4.47;;
35632;SDS011;21754;48.216;-1.628;2023-06-14T11:12:09;9.07;;;4.53;;
35632;SDS011;21754;48.216;-1.628;2023-06-14T11:14:36;14.68;;;5.40;;
35632;SDS011;21754;48.216;-1.628;2023-06-14T11:17:03;5.40;;;4.60;;
35632;SDS011;21754;48.216;-1.628;2023-06-14T11:19:29;8.45;;;5.57;;
35632;SDS011;21754;48.216;-1.628;2023-06-14T11:21:56;17.45;;;5.85;;
35632;SDS011;21754;48.216;-1.628;2023-06-14T11:24:22;5.68;;;4.25;;
35632;SDS011;21754;48.216;-1.628;2023-06-14T11:26:49;16.20;;;6.18;;
35632;SDS011;21754;48.216;-1.628;2023-06-14T11:29:15;9.85;;;4.75;;
35632;SDS011;21754;48.216;-1.628;2023-06-14T11:31:45;17.80;;;5.38;;
35632;SDS011;21754;48.216;-1.628;2023-06-14T11:34:11;14.80;;;5.53;;
35632;SDS011;21754;48.216;-1.628;2023-06-14T11:36:38;12.60;;;5.18;;
35632;SDS011;21754;48.216;-1.628;2023-06-14T11:39:04;9.40;;;6.28;;
35632;SDS011;21754;48.216;-1.628;2023-06-14T11:41:32;9.68;;;5.30;;
35632;SDS011;21754;48.216;-1.628;2023-06-14T11:44:00;16.45;;;4.97;;
35632;SDS011;21754;48.216;-1.628;2023-06-14T11:46:26;7.60;;;4.53;;
35632;SDS011;21754;48.216;-1.628;2023-06-14T11:48:52;4.05;;;3.67;;
35632;SDS011;21754;48.216;-1.628;2023-06-14T11:51:18;12.18;;;5.85;;
35632;SDS011;21754;48.216;-1.628;2023-06-14T11:53:45;7.88;;;4.97;;
35632;SDS011;21754;48.216;-1.628;2023-06-14T11:56:12;9.25;;;4.05;;
35632;SDS011;21754;48.216;-1.628;2023-06-14T11:58:38;8.25;;;5.20;;
35632;SDS011;21754;48.216;-1.628;2023-06-14T12:01:05;10.25;;;5.25;;
35632;SDS011;21754;48.216;-1.628;2023-06-14T12:03:31;10.35;;;4.50;;
35632;SDS011;21754;48.216;-1.628;2023-06-14T12:08:36;6.68;;;5.13;;
35632;SDS011;21754;48.216;-1.628;2023-06-14T12:11:06;6.95;;;5.03;;
35632;SDS011;21754;48.216;-1.628;2023-06-14T12:13:33;12.82;;;4.75;;
35632;SDS011;21754;48.216;-1.628;2023-06-14T12:15:59;8.93;;;4.93;;
35632;SDS011;21754;48.216;-1.628;2023-06-14T12:18:36;8.52;;;4.63;;
35632;SDS011;21754;48.216;-1.628;2023-06-14T12:21:05;7.25;;;5.30;;
35632;SDS011;21754;48.216;-1.628;2023-06-14T12:23:47;12.48;;;6.00;;
35632;SDS011;21754;48.216;-1.628;2023-06-14T12:26:16;7.30;;;5.22;;
35632;SDS011;21754;48.216;-1.628;2023-06-14T12:28:46;7.20;;;5.20;;
35632;SDS011;21754;48.216;-1.628;2023-06-14T12:31:13;8.98;;;4.78;;
35632;SDS011;21754;48.216;-1.628;2023-06-14T12:33:39;13.43;;;4.68;;
35632;SDS011;21754;48.216;-1.628;2023-06-14T12:36:09;6.53;;;4.40;;
35632;SDS011;21754;48.216;-1.628;2023-06-14T12:38:35;10.75;;;5.32;;
35632;SDS011;21754;48.216;-1.628;2023-06-14T12:41:01;13.57;;;5.43;;
35632;SDS011;21754;48.216;-1.628;2023-06-14T12:43:27;11.02;;;5.20;;
35632;SDS011;21754;48.216;-1.628;2023-06-14T12:45:53;12.35;;;5.70;;
35632;SDS011;21754;48.216;-1.628;2023-06-14T12:48:20;13.93;;;6.15;;
35632;SDS011;21754;48.216;-1.628;2023-06-14T12:50:46;8.60;;;4.90;;
35632;SDS011;21754;48.216;-1.628;2023-06-14T12:53:12;13.52;;;6.07;;
35632;SDS011;21754;48.216;-1.628;2023-06-14T12:55:38;8.57;;;4.78;;
35632;SDS011;21754;48.216;-1.628;2023-06-14T12:58:04;7.30;;;4.97;;
35632;SDS011;21754;48.216;-1.628;2023-06-14T13:00:30;11.25;;;4.68;;
35632;SDS011;21754;48.216;-1.628;2023-06-14T13:02:59;7.53;;;4.10;;
35632;SDS011;21754;48.216;-1.628;2023-06-14T13:05:25;5.75;;;5.15;;
35632;SDS011;21754;48.216;-1.628;2023-06-14T13:07:51;11.38;;;4.72;;
35632;SDS011;21754;48.216;-1.628;2023-06-14T13:10:17;7.25;;;4.78;;
35632;SDS011;21754;48.216;-1.628;2023-06-14T13:12:43;11.50;;;5.10;;
35632;SDS011;21754;48.216;-1.628;2023-06-14T13:15:09;11.45;;;4.93;;
35632;SDS011;21754;48.216;-1.628;2023-06-14T13:17:35;5.18;;;4.55;;
35632;SDS011;21754;48.216;-1.628;2023-06-14T13:20:05;4.97;;;4.43;;
35632;SDS011;21754;48.216;-1.628;2023-06-14T13:22:32;4.78;;;4.28;;
35632;SDS011;21754;48.216;-1.628;2023-06-14T13:24:58;4.70;;;4.00;;
35632;SDS011;21754;48.216;-1.628;2023-06-14T13:27:25;5.88;;;4.70;;
35632;SDS011;21754;48.216;-1.628;2023-06-14T13:29:51;15.93;;;5.35;;
35632;SDS011;21754;48.216;-1.628;2023-06-14T13:32:17;8.75;;;4.40;;
35632;SDS011;21754;48.216;-1.628;2023-06-14T13:34:43;10.05;;;4.75;;
35632;SDS011;21754;48.216;-1.628;2023-06-14T13:37:09;7.15;;;4.32;;
35632;SDS011;21754;48.216;-1.628;2023-06-14T13:39:35;7.40;;;3.92;;
35632;SDS011;21754;48.216;-1.628;2023-06-14T13:42:02;6.97;;;4.22;;
35632;SDS011;21754;48.216;-1.628;2023-06-14T13:44:28;7.35;;;4.03;;
35632;SDS011;21754;48.216;-1.628;2023-06-14T13:46:54;5.88;;;4.50;;
35632;SDS011;21754;48.216;-1.628;2023-06-14T13:49:20;13.05;;;4.20;;
35632;SDS011;21754;48.216;-1.628;2023-06-14T13:51:46;11.82;;;5.28;;
35632;SDS011;21754;48.216;-1.628;2023-06-14T13:54:12;4.70;;;4.25;;
35632;SDS011;21754;48.216;-1.628;2023-06-14T13:59:06;6.85;;;5.18;;
35632;SDS011;21754;48.216;-1.628;2023-06-14T14:01:31;7.38;;;5.20;;
35632;SDS011;21754;48.216;-1.628;2023-06-14T14:03:57;6.32;;;4.38;;
35632;SDS011;21754;48.216;-1.628;2023-06-14T14:06:23;7.17;;;4.60;;
35632;SDS011;21754;48.216;-1.628;2023-06-14T14:08:50;8.15;;;5.38;;
35632;SDS011;21754;48.216;-1.628;2023-06-14T14:11:17;5.25;;;4.05;;
35632;SDS011;21754;48.216;-1.628;2023-06-14T14:13:43;11.68;;;4.35;;
35632;SDS011;21754;48.216;-1.628;2023-06-14T14:16:10;5.88;;;5.28;;
35632;SDS011;21754;48.216;-1.628;2023-06-14T14:18:36;7.93;;;5.23;;
35632;SDS011;21754;48.216;-1.628;2023-06-14T14:21:02;5.35;;;3.80;;
35632;SDS011;21754;48.216;-1.628;2023-06-14T14:23:28;6.53;;;4.80;;
35632;SDS011;21754;48.216;-1.628;2023-06-14T14:25:54;12.18;;;4.82;;
35632;SDS011;21754;48.216;-1.628;2023-06-14T14:28:21;5.40;;;4.47;;
35632;SDS011;21754;48.216;-1.628;2023-06-14T14:30:47;10.90;;;4.60;;
35632;SDS011;21754;48.216;-1.628;2023-06-14T14:33:14;7.78;;;4.70;;